createdAt,value
2022-09-26T00:00:09.469Z,356
2022-09-26T00:01:08.625Z,358
2022-09-26T00:02:08.383Z,355
2022-09-26T00:03:08.113Z,376
2022-09-26T00:04:08.552Z,382
2022-09-26T00:05:08.097Z,374
2022-09-26T00:06:08.766Z,371
2022-09-26T00:07:08.372Z,366
2022-09-26T00:09:08.234Z,364
2022-09-26T00:10:08.758Z,357
2022-09-26T00:11:08.220Z,364
2022-09-26T00:12:08.225Z,358
2022-09-26T00:13:08.803Z,364
2022-09-26T00:14:08.404Z,361
2022-09-26T00:15:08.201Z,358
2022-09-26T00:16:08.770Z,356
2022-09-26T00:17:08.515Z,354
2022-09-26T00:18:07.781Z,365
2022-09-26T00:19:08.047Z,345
2022-09-26T00:20:08.735Z,355
2022-09-26T00:21:08.027Z,350
2022-09-26T00:22:08.450Z,352
2022-09-26T00:23:07.612Z,357
2022-09-26T00:24:15.735Z,363
2022-09-26T00:25:07.893Z,367
2022-09-26T00:26:07.963Z,378
2022-09-26T00:27:08.262Z,376
2022-09-26T00:28:08.728Z,372
2022-09-26T00:29:07.923Z,368
2022-09-26T00:30:08.337Z,365
2022-09-26T00:31:07.755Z,360
2022-09-26T00:32:08.279Z,362
2022-09-26T00:33:08.444Z,354
2022-09-26T00:34:07.874Z,352
2022-09-26T00:35:08.270Z,346
2022-09-26T00:36:08.726Z,352
2022-09-26T00:37:08.152Z,348
2022-09-26T00:38:08.372Z,356
2022-09-26T00:39:07.669Z,360
2022-09-26T00:40:08.326Z,357
2022-09-26T00:41:08.015Z,350
2022-09-26T00:42:08.576Z,358
2022-09-26T00:43:07.505Z,362
2022-09-26T00:44:07.760Z,358
2022-09-26T00:45:07.799Z,353
2022-09-26T00:46:07.900Z,355
2022-09-26T00:47:08.070Z,357
2022-09-26T00:48:08.079Z,352
2022-09-26T00:49:08.214Z,366
2022-09-26T00:50:08.536Z,367
2022-09-26T00:51:07.694Z,370
2022-09-26T00:52:07.848Z,359
2022-09-26T00:53:07.987Z,367
2022-09-26T00:54:08.195Z,370
2022-09-26T00:55:08.280Z,365
2022-09-26T00:56:08.325Z,362
2022-09-26T00:57:08.215Z,353
2022-09-26T00:58:08.424Z,381
2022-09-26T00:59:07.457Z,342
2022-09-26T01:00:08.405Z,350
2022-09-26T01:01:08.046Z,364
2022-09-26T01:02:08.356Z,355
2022-09-26T01:03:07.967Z,356
2022-09-26T01:04:07.942Z,353
2022-09-26T01:05:08.033Z,363
2022-09-26T01:06:07.982Z,366
2022-09-26T01:07:07.937Z,364
2022-09-26T01:10:08.206Z,361
2022-09-26T01:11:08.264Z,359
2022-09-26T01:12:07.678Z,370
2022-09-26T01:13:07.821Z,372
2022-09-26T01:14:07.817Z,361
2022-09-26T01:15:08.247Z,350
2022-09-26T01:17:08.154Z,361
2022-09-26T01:18:08.254Z,362
2022-09-26T01:19:08.426Z,358
2022-09-26T01:20:07.846Z,365
2022-09-26T01:21:07.953Z,372
2022-09-26T01:23:07.902Z,366
2022-09-26T01:24:07.988Z,372
2022-09-26T01:25:08.022Z,365
2022-09-26T01:26:07.931Z,362
2022-09-26T01:27:07.998Z,360
2022-09-26T01:28:07.658Z,368
2022-09-26T01:29:07.413Z,366
2022-09-26T01:30:07.886Z,360
2022-09-26T01:31:08.001Z,359
2022-09-26T01:32:08.256Z,355
2022-09-26T01:33:08.178Z,351
2022-09-26T01:35:07.826Z,350
2022-09-26T01:36:08.038Z,355
2022-09-26T01:37:08.247Z,356
2022-09-26T01:38:08.309Z,351
2022-09-26T01:39:08.357Z,366
2022-09-26T01:40:07.563Z,346
2022-09-26T01:41:07.651Z,355
2022-09-26T01:42:07.425Z,366
2022-09-26T01:43:07.274Z,356
2022-09-26T01:44:07.328Z,360
2022-09-26T01:45:07.947Z,351
2022-09-26T01:46:08.643Z,347
2022-09-26T01:47:07.883Z,365
2022-09-26T01:48:08.212Z,367
2022-09-26T01:49:08.063Z,361
2022-09-26T01:50:07.958Z,367
2022-09-26T01:51:07.867Z,358
2022-09-26T01:52:07.648Z,360
2022-09-26T01:53:07.594Z,363
2022-09-26T01:54:07.869Z,359
2022-09-26T01:55:07.588Z,360
2022-09-26T01:56:07.468Z,363
2022-09-26T01:57:07.491Z,361
2022-09-26T01:58:07.512Z,356
2022-09-26T01:59:07.538Z,349
2022-09-26T02:00:08.465Z,379
2022-09-26T02:01:08.325Z,377
2022-09-26T02:02:08.485Z,367
2022-09-26T02:03:07.796Z,364
2022-09-26T02:04:07.952Z,368
2022-09-26T02:05:07.931Z,359
2022-09-26T02:06:07.986Z,357
2022-09-26T02:07:08.124Z,353
2022-09-26T02:08:07.891Z,360
2022-09-26T02:09:08.106Z,357
2022-09-26T02:10:07.942Z,355
2022-09-26T02:11:08.148Z,353
2022-09-26T02:12:08.216Z,364
2022-09-26T02:13:07.596Z,360
2022-09-26T02:14:08.137Z,354
2022-09-26T02:15:08.569Z,352
2022-09-26T02:16:07.610Z,356
2022-09-26T02:17:08.103Z,360
2022-09-26T02:18:08.631Z,359
2022-09-26T02:19:07.465Z,356
2022-09-26T02:20:07.966Z,364
2022-09-26T02:21:08.510Z,365
2022-09-26T02:22:07.648Z,364
2022-09-26T02:23:07.527Z,356
2022-09-26T02:24:07.606Z,355
2022-09-26T02:25:07.960Z,361
2022-09-26T02:26:08.169Z,360
2022-09-26T02:27:08.608Z,356
2022-09-26T02:28:07.871Z,368
2022-09-26T02:29:08.393Z,362
2022-09-26T02:30:07.766Z,361
2022-09-26T02:31:07.927Z,365
2022-09-26T02:32:08.273Z,347
2022-09-26T02:35:08.240Z,344
2022-09-26T02:36:08.004Z,340
2022-09-26T02:37:12.792Z,344
2022-09-26T02:38:08.156Z,349
2022-09-26T02:39:08.293Z,355
2022-09-26T02:40:08.405Z,352
2022-09-26T02:41:07.862Z,327
2022-09-26T02:42:08.143Z,340
2022-09-26T02:43:08.553Z,343
2022-09-26T02:44:07.543Z,349
2022-09-26T02:45:08.129Z,356
2022-09-26T02:46:07.786Z,362
2022-09-26T02:47:08.202Z,360
2022-09-26T02:48:08.799Z,372
2022-09-26T02:49:07.816Z,358
2022-09-26T02:50:08.071Z,354
2022-09-26T02:51:08.511Z,353
2022-09-26T02:52:08.462Z,351
2022-09-26T02:53:07.619Z,367
2022-09-26T02:54:08.288Z,360
2022-09-26T02:55:07.808Z,359
2022-09-26T02:56:08.254Z,363
2022-09-26T02:57:07.493Z,354
2022-09-26T02:58:07.693Z,352
2022-09-26T03:00:08.391Z,350
2022-09-26T03:01:08.007Z,382
2022-09-26T03:02:08.573Z,347
2022-09-26T03:03:08.063Z,350
2022-09-26T03:04:07.525Z,360
2022-09-26T03:05:08.328Z,358
2022-09-26T03:06:07.961Z,362
2022-09-26T03:07:08.539Z,363
2022-09-26T03:08:07.785Z,362
2022-09-26T03:09:08.522Z,354
2022-09-26T03:11:08.140Z,353
2022-09-26T03:12:08.856Z,361
2022-09-26T03:13:08.198Z,358
2022-09-26T03:14:08.560Z,346
2022-09-26T03:15:08.265Z,352
2022-09-26T03:16:08.432Z,356
2022-09-26T03:17:08.687Z,359
2022-09-26T03:18:08.108Z,351
2022-09-26T03:20:08.602Z,358
2022-09-26T03:21:08.051Z,359
2022-09-26T03:22:08.458Z,358
2022-09-26T03:23:07.969Z,354
2022-09-26T03:25:08.172Z,347
2022-09-26T03:27:07.956Z,342
2022-09-26T03:28:08.487Z,341
2022-09-26T03:29:07.835Z,340
2022-09-26T03:30:08.664Z,344
2022-09-26T03:31:08.158Z,338
2022-09-26T03:32:07.759Z,349
2022-09-26T03:33:08.010Z,363
2022-09-26T03:34:08.134Z,361
2022-09-26T03:35:08.579Z,359
2022-09-26T03:36:07.903Z,348
2022-09-26T03:37:08.322Z,357
2022-09-26T03:38:11.323Z,359
2022-09-26T03:39:08.076Z,355
2022-09-26T03:41:08.522Z,349
2022-09-26T03:42:07.860Z,356
2022-09-26T03:43:08.636Z,359
2022-09-26T03:44:08.698Z,362
2022-09-26T03:45:08.832Z,352
2022-09-26T03:46:07.806Z,348
2022-09-26T03:47:08.768Z,352
2022-09-26T03:48:08.640Z,357
2022-09-26T03:49:08.328Z,353
2022-09-26T03:50:07.775Z,345
2022-09-26T03:51:08.381Z,353
2022-09-26T03:52:08.277Z,355
2022-09-26T03:53:08.783Z,350
2022-09-26T03:54:08.240Z,354
2022-09-26T03:55:08.033Z,349
2022-09-26T03:56:08.439Z,361
2022-09-26T03:57:07.981Z,363
2022-09-26T03:58:08.334Z,362
2022-09-26T03:59:08.149Z,352
2022-09-26T04:00:08.877Z,337
2022-09-26T04:01:08.686Z,352
2022-09-26T04:02:08.627Z,343
2022-09-26T04:03:08.269Z,341
2022-09-26T04:04:07.792Z,346
2022-09-26T04:05:08.739Z,351
2022-09-26T04:06:08.262Z,360
2022-09-26T04:08:08.020Z,351
2022-09-26T04:10:08.321Z,360
2022-09-26T04:11:08.220Z,359
2022-09-26T04:12:07.939Z,349
2022-09-26T04:13:08.917Z,356
2022-09-26T04:14:08.725Z,363
2022-09-26T04:15:08.458Z,354
2022-09-26T04:16:08.357Z,348
2022-09-26T04:17:08.127Z,354
2022-09-26T04:18:07.914Z,348
2022-09-26T04:19:08.013Z,359
2022-09-26T04:20:09.001Z,356
2022-09-26T04:21:10.032Z,365
2022-09-26T04:22:07.805Z,362
2022-09-26T04:23:08.954Z,349
2022-09-26T04:24:08.379Z,352
2022-09-26T04:26:08.555Z,364
2022-09-26T04:27:08.760Z,357
2022-09-26T04:28:08.729Z,351
2022-09-26T04:29:09.024Z,352
2022-09-26T04:30:09.312Z,354
2022-09-26T04:31:08.637Z,362
2022-09-26T04:32:08.535Z,369
2022-09-26T04:33:08.091Z,370
2022-09-26T04:34:08.134Z,357
2022-09-26T04:36:07.765Z,362
2022-09-26T04:37:08.840Z,371
2022-09-26T04:38:08.570Z,370
2022-09-26T04:39:07.939Z,360
2022-09-26T04:41:09.107Z,353
2022-09-26T04:44:08.377Z,363
2022-09-26T04:45:08.826Z,357
2022-09-26T04:46:08.160Z,356
2022-09-26T04:47:08.163Z,363
2022-09-26T04:48:09.313Z,360
2022-09-26T04:49:08.740Z,369
2022-09-26T04:50:08.478Z,357
2022-09-26T04:51:08.589Z,355
2022-09-26T04:52:08.567Z,360
2022-09-26T04:53:08.169Z,356
2022-09-26T04:54:07.895Z,360
2022-09-26T04:55:09.135Z,358
2022-09-26T04:56:08.364Z,368
2022-09-26T04:57:08.153Z,359
2022-09-26T04:58:07.969Z,348
2022-09-26T04:59:08.043Z,352
2022-09-26T05:02:08.445Z,342
2022-09-26T05:03:08.607Z,348
2022-09-26T05:05:08.902Z,347
2022-09-26T05:06:08.521Z,354
2022-09-26T05:07:08.358Z,357
2022-09-26T05:08:08.309Z,359
2022-09-26T05:09:08.565Z,353
2022-09-26T05:11:08.779Z,359
2022-09-26T05:12:08.116Z,361
2022-09-26T05:13:07.890Z,355
2022-09-26T05:14:07.937Z,359
2022-09-26T05:15:08.360Z,351
2022-09-26T05:16:08.765Z,346
2022-09-26T05:18:08.507Z,359
2022-09-26T05:19:08.171Z,358
2022-09-26T05:20:08.203Z,350
2022-09-26T05:22:08.673Z,344
2022-09-26T05:23:08.296Z,343
2022-09-26T05:24:08.491Z,351
2022-09-26T05:25:08.964Z,350
2022-09-26T05:26:08.342Z,355
2022-09-26T05:27:08.550Z,357
2022-09-26T05:28:08.888Z,351
2022-09-26T05:29:09.257Z,344
2022-09-26T05:30:23.451Z,355
2022-09-26T05:31:08.831Z,361
2022-09-26T05:32:27.640Z,359
2022-09-26T05:33:08.669Z,370
2022-09-26T05:34:09.091Z,357
2022-09-26T05:35:08.587Z,356
2022-09-26T05:36:08.861Z,358
2022-09-26T05:37:08.347Z,361
2022-09-26T05:38:08.401Z,370
2022-09-26T05:39:08.429Z,364
2022-09-26T05:40:08.538Z,354
2022-09-26T05:42:08.752Z,350
2022-09-26T05:43:08.713Z,356
2022-09-26T05:45:08.552Z,379
2022-09-26T05:46:08.854Z,359
2022-09-26T05:47:08.449Z,357
2022-09-26T05:48:08.835Z,359
2022-09-26T05:49:08.822Z,351
2022-09-26T05:50:09.013Z,346
2022-09-26T05:51:09.024Z,348
2022-09-26T05:52:08.501Z,347
2022-09-26T05:53:08.855Z,351
2022-09-26T05:54:08.993Z,349
2022-09-26T05:55:09.290Z,354
2022-09-26T05:56:08.209Z,353
2022-09-26T05:57:08.574Z,348
2022-09-26T05:58:08.704Z,357
2022-09-26T05:59:08.238Z,351
2022-09-26T06:00:09.535Z,354
2022-09-26T06:01:09.125Z,366
2022-09-26T06:02:08.783Z,358
2022-09-26T06:03:08.810Z,352
2022-09-26T06:05:09.447Z,357
2022-09-26T06:06:08.878Z,372
2022-09-26T06:07:09.674Z,357
2022-09-26T06:08:08.565Z,361
2022-09-26T06:09:08.832Z,358
2022-09-26T06:10:09.457Z,352
2022-09-26T06:11:09.238Z,353
2022-09-26T06:12:08.793Z,357
2022-09-26T06:13:09.165Z,354
2022-09-26T06:14:08.252Z,352
2022-09-26T06:20:09.161Z,360
2022-09-26T06:21:08.769Z,359
2022-09-26T06:22:08.294Z,351
2022-09-26T06:23:08.420Z,344
2022-09-26T06:24:08.972Z,350
2022-09-26T06:25:08.455Z,355
2022-09-26T06:26:09.045Z,339
2022-09-26T06:27:09.044Z,346
2022-09-26T06:28:08.783Z,341
2022-09-26T06:29:08.052Z,339
2022-09-26T06:30:08.443Z,345
2022-09-26T06:31:08.897Z,363
2022-09-26T06:32:09.066Z,361
2022-09-26T06:33:08.871Z,348
2022-09-26T06:34:09.227Z,359
2022-09-26T06:35:09.087Z,350
2022-09-26T06:36:08.513Z,349
2022-09-26T06:37:09.137Z,357
2022-09-26T06:38:08.598Z,350
2022-09-26T06:39:10.057Z,356
2022-09-26T06:40:08.963Z,350
2022-09-26T06:41:09.041Z,345
2022-09-26T06:42:09.197Z,358
2022-09-26T06:43:08.836Z,363
2022-09-26T06:44:08.440Z,360
2022-09-26T06:45:08.784Z,335
2022-09-26T06:46:09.057Z,356
2022-09-26T06:47:09.231Z,348
2022-09-26T06:48:09.434Z,347
2022-09-26T06:49:08.794Z,344
2022-09-26T06:50:08.622Z,347
2022-09-26T06:51:09.676Z,358
2022-09-26T06:52:08.685Z,360
2022-09-26T06:54:08.956Z,354
2022-09-26T06:55:09.017Z,355
2022-09-26T06:56:09.083Z,352
2022-09-26T06:57:14.140Z,340
2022-09-26T06:58:08.449Z,344
2022-09-26T06:59:09.017Z,343
2022-09-26T07:00:09.303Z,342
2022-09-26T07:01:09.602Z,352
2022-09-26T07:02:09.639Z,347
2022-09-26T07:03:09.208Z,346
2022-09-26T07:04:08.802Z,350
2022-09-26T07:05:09.527Z,352
2022-09-26T07:06:09.330Z,332
2022-09-26T07:07:08.598Z,339
2022-09-26T07:08:09.244Z,342
2022-09-26T07:09:12.340Z,337
2022-09-26T07:10:09.591Z,344
2022-09-26T07:11:31.146Z,347
2022-09-26T07:12:14.645Z,350
2022-09-26T07:13:08.753Z,356
2022-09-26T07:14:08.450Z,347
2022-09-26T07:15:08.586Z,346
2022-09-26T07:16:08.577Z,355
2022-09-26T07:17:09.392Z,357
2022-09-26T07:18:08.779Z,355
2022-09-26T07:19:08.995Z,352
2022-09-26T07:20:08.551Z,340
2022-09-26T07:21:08.861Z,328
2022-09-26T07:22:08.276Z,331
2022-09-26T07:24:08.574Z,330
2022-09-26T07:25:09.203Z,369
2022-09-26T07:26:08.843Z,339
2022-09-26T07:27:09.421Z,340
2022-09-26T07:28:08.996Z,334
2022-09-26T07:29:08.639Z,351
2022-09-26T07:30:08.455Z,349
2022-09-26T07:31:09.463Z,348
2022-09-26T07:33:08.866Z,344
2022-09-26T07:34:08.386Z,347
2022-09-26T07:35:08.937Z,342
2022-09-26T07:37:08.930Z,341
2022-09-26T07:38:08.805Z,340
2022-09-26T07:39:09.128Z,334
2022-09-26T07:40:08.426Z,337
2022-09-26T07:41:08.756Z,342
2022-09-26T07:42:08.817Z,346
2022-09-26T07:43:19.825Z,333
2022-09-26T07:45:26.149Z,322
2022-09-26T07:46:08.868Z,318
2022-09-26T07:47:08.491Z,331
2022-09-26T07:48:09.056Z,336
2022-09-26T07:49:08.128Z,346
2022-09-26T07:50:08.360Z,344
2022-09-26T07:51:09.404Z,335
2022-09-26T07:52:09.206Z,355
2022-09-26T07:53:09.329Z,345
2022-09-26T07:54:08.775Z,341
2022-09-26T07:55:08.978Z,331
2022-09-26T07:56:08.160Z,334
2022-09-26T07:57:08.789Z,342
2022-09-26T07:58:08.369Z,336
2022-09-26T07:59:28.232Z,335
2022-09-26T08:00:09.209Z,343
2022-09-26T08:04:08.944Z,340
2022-09-26T08:05:08.508Z,337
2022-09-26T08:06:08.949Z,338
2022-09-26T08:08:08.190Z,335
2022-09-26T08:09:08.507Z,336
2022-09-26T08:10:08.841Z,331
2022-09-26T08:11:08.938Z,337
2022-09-26T08:13:09.086Z,333
2022-09-26T08:14:08.651Z,340
2022-09-26T08:16:08.915Z,335
2022-09-26T08:17:11.986Z,330
2022-09-26T08:18:08.463Z,337
2022-09-26T08:19:08.492Z,335
2022-09-26T08:20:09.540Z,349
2022-09-26T08:21:08.848Z,356
2022-09-26T08:22:08.663Z,355
2022-09-26T08:23:09.251Z,349
2022-09-26T08:24:08.619Z,336
2022-09-26T08:25:08.634Z,339
2022-09-26T08:26:08.766Z,340
2022-09-26T08:27:08.911Z,343
2022-09-26T08:28:08.582Z,349
2022-09-26T08:29:08.291Z,351
2022-09-26T08:30:08.682Z,345
2022-09-26T08:31:08.855Z,342
2022-09-26T08:32:09.522Z,333
2022-09-26T08:33:08.836Z,336
2022-09-26T08:34:09.061Z,344
2022-09-26T08:35:08.539Z,347
2022-09-26T08:36:08.589Z,351
2022-09-26T08:37:08.634Z,353
2022-09-26T08:38:08.655Z,341
2022-09-26T08:39:08.833Z,346
2022-09-26T08:40:08.344Z,351
2022-09-26T08:42:08.486Z,352
2022-09-26T08:43:08.025Z,357
2022-09-26T08:44:08.291Z,351
2022-09-26T08:45:08.652Z,337
2022-09-26T08:46:08.957Z,340
2022-09-26T08:47:08.302Z,346
2022-09-26T08:48:08.628Z,345
2022-09-26T08:49:09.393Z,338
2022-09-26T08:50:08.984Z,337
2022-09-26T08:51:08.574Z,338
2022-09-26T08:52:08.667Z,334
2022-09-26T08:53:08.589Z,338
2022-09-26T08:54:08.386Z,347
2022-09-26T08:55:08.830Z,344
2022-09-26T08:56:08.728Z,345
2022-09-26T08:57:08.787Z,342
2022-09-26T08:58:08.915Z,346
2022-09-26T08:59:08.190Z,339
2022-09-26T09:00:09.281Z,338
2022-09-26T09:01:09.085Z,341
2022-09-26T09:02:08.749Z,337
2022-09-26T09:03:08.678Z,343
2022-09-26T09:04:08.490Z,351
2022-09-26T09:05:08.535Z,343
2022-09-26T09:06:08.632Z,332
2022-09-26T09:07:08.731Z,337
2022-09-26T09:08:09.051Z,339
2022-09-26T09:09:08.963Z,334
2022-09-26T09:10:09.204Z,345
2022-09-26T09:11:07.973Z,342
2022-09-26T09:12:08.277Z,333
2022-09-26T09:13:08.271Z,330
2022-09-26T09:14:08.475Z,338
2022-09-26T09:15:24.500Z,339
2022-09-26T09:16:09.019Z,352
2022-09-26T09:17:08.465Z,351
2022-09-26T09:18:13.275Z,347
2022-09-26T09:19:08.743Z,355
2022-09-26T09:20:09.152Z,352
2022-09-26T09:21:08.177Z,353
2022-09-26T09:22:08.070Z,336
2022-09-26T09:23:08.720Z,362
2022-09-26T09:24:08.701Z,345
2022-09-26T09:25:08.347Z,338
2022-09-26T09:28:09.142Z,338
2022-09-26T09:29:10.329Z,343
2022-09-26T09:31:08.988Z,339
2022-09-26T09:32:09.144Z,335
2022-09-26T09:33:08.325Z,337
2022-09-26T09:34:08.707Z,344
2022-09-26T09:35:08.830Z,343
2022-09-26T09:37:09.287Z,344
2022-09-26T09:40:08.873Z,346
2022-09-26T09:41:07.932Z,336
2022-09-26T09:42:08.576Z,337
2022-09-26T09:43:09.005Z,333
2022-09-26T09:44:08.936Z,330
2022-09-26T09:45:09.497Z,329
2022-09-26T09:46:09.212Z,335
2022-09-26T09:47:08.598Z,348
2022-09-26T09:48:08.884Z,350
2022-09-26T09:49:08.828Z,337
2022-09-26T09:50:08.367Z,335
2022-09-26T09:51:08.678Z,328
2022-09-26T09:52:09.013Z,331
2022-09-26T09:53:08.347Z,342
2022-09-26T09:54:08.597Z,346
2022-09-26T09:55:08.627Z,349
2022-09-26T09:56:13.777Z,330
2022-09-26T09:57:09.093Z,321
2022-09-26T09:58:09.110Z,332
2022-09-26T09:59:08.527Z,337
2022-09-26T10:00:09.793Z,339
2022-09-26T10:01:08.425Z,336
2022-09-26T10:02:08.380Z,339
2022-09-26T10:03:08.703Z,341
2022-09-26T10:04:08.650Z,333
2022-09-26T10:05:08.585Z,332
2022-09-26T10:06:44.361Z,334
2022-09-26T10:07:09.139Z,335
2022-09-26T10:08:07.880Z,331
2022-09-26T10:09:35.571Z,326
2022-09-26T10:10:22.361Z,328
2022-09-26T10:11:08.475Z,342
2022-09-26T10:12:09.004Z,348
2022-09-26T10:13:08.912Z,352
2022-09-26T10:14:08.559Z,351
2022-09-26T10:15:09.247Z,337
2022-09-26T10:16:22.595Z,336
2022-09-26T10:17:08.009Z,342
2022-09-26T10:18:24.639Z,346
2022-09-26T10:19:08.506Z,341
2022-09-26T10:20:08.606Z,329
2022-09-26T10:21:08.815Z,344
2022-09-26T10:22:08.648Z,330
2022-09-26T10:23:08.927Z,339
2022-09-26T10:24:08.943Z,337
2022-09-26T10:25:08.910Z,340
2022-09-26T10:26:08.114Z,327
2022-09-26T10:27:08.489Z,332
2022-09-26T10:28:09.122Z,330
2022-09-26T10:29:08.400Z,337
2022-09-26T10:30:08.739Z,326
2022-09-26T10:31:08.224Z,332
2022-09-26T10:32:08.714Z,338
2022-09-26T10:33:08.938Z,336
2022-09-26T10:34:08.037Z,338
2022-09-26T10:35:08.747Z,340
2022-09-26T10:36:08.421Z,337
2022-09-26T10:37:08.891Z,338
2022-09-26T10:38:07.909Z,332
2022-09-26T10:39:08.759Z,327
2022-09-26T10:40:08.492Z,368
2022-09-26T10:41:09.072Z,337
2022-09-26T10:42:08.548Z,330
2022-09-26T10:45:08.111Z,335
2022-09-26T10:46:08.559Z,340
2022-09-26T10:47:08.945Z,341
2022-09-26T10:48:09.383Z,331
2022-09-26T10:49:09.143Z,334
2022-09-26T10:51:07.982Z,342
2022-09-26T10:52:08.902Z,334
2022-09-26T10:54:08.971Z,347
2022-09-26T10:55:08.211Z,346
2022-09-26T10:56:08.700Z,338
2022-09-26T10:57:08.733Z,334
2022-09-26T10:58:13.547Z,327
2022-09-26T10:59:08.215Z,329
2022-09-26T11:01:08.534Z,336
2022-09-26T11:02:08.899Z,338
2022-09-26T11:03:08.375Z,331
2022-09-26T11:04:08.974Z,332
2022-09-26T11:05:08.462Z,345
2022-09-26T11:06:08.616Z,346
2022-09-26T11:07:08.743Z,339
2022-09-26T11:08:08.694Z,348
2022-09-26T11:10:09.365Z,339
2022-09-26T11:11:08.791Z,330
2022-09-26T11:12:08.172Z,323
2022-09-26T11:13:08.130Z,328
2022-09-26T11:14:08.323Z,333
2022-09-26T11:15:08.354Z,337
2022-09-26T11:16:08.529Z,331
2022-09-26T11:17:08.610Z,333
2022-09-26T11:18:08.872Z,342
2022-09-26T11:19:08.897Z,314
2022-09-26T11:20:08.057Z,313
2022-09-26T11:21:23.041Z,325
2022-09-26T11:22:08.518Z,336
2022-09-26T11:23:08.829Z,325
2022-09-26T11:24:08.224Z,332
2022-09-26T11:28:08.996Z,344
2022-09-26T11:29:08.052Z,341
2022-09-26T11:30:08.667Z,337
2022-09-26T11:31:08.576Z,340
2022-09-26T11:32:09.122Z,335
2022-09-26T11:33:08.328Z,332
2022-09-26T11:34:08.259Z,339
2022-09-26T11:35:08.858Z,347
2022-09-26T11:36:08.214Z,343
2022-09-26T11:37:08.302Z,325
2022-09-26T11:38:08.879Z,358
2022-09-26T11:39:08.117Z,337
2022-09-26T11:41:08.630Z,335
2022-09-26T11:42:08.844Z,338
2022-09-26T11:43:08.136Z,344
2022-09-26T11:44:08.578Z,351
2022-09-26T11:45:09.239Z,337
2022-09-26T11:46:09.095Z,323
2022-09-26T11:47:08.195Z,338
2022-09-26T11:48:08.739Z,333
2022-09-26T11:49:08.770Z,326
2022-09-26T11:50:09.025Z,341
2022-09-26T11:51:08.301Z,337
2022-09-26T11:53:08.600Z,334
2022-09-26T11:54:08.891Z,347
2022-09-26T11:55:08.338Z,346
2022-09-26T11:56:08.735Z,318
2022-09-26T11:57:09.254Z,361
2022-09-26T11:58:08.512Z,330
2022-09-26T11:59:09.270Z,325
2022-09-26T12:00:10.202Z,321
2022-09-26T12:01:08.294Z,333
2022-09-26T12:02:08.585Z,338
2022-09-26T12:03:09.087Z,337
2022-09-26T12:04:08.659Z,342
2022-09-26T12:05:08.482Z,333
2022-09-26T12:06:08.947Z,328
2022-09-26T12:07:08.490Z,335
2022-09-26T12:08:08.462Z,332
2022-09-26T12:09:08.639Z,331
2022-09-26T12:10:08.961Z,328
2022-09-26T12:11:08.216Z,334
2022-09-26T12:12:08.335Z,329
2022-09-26T12:13:08.323Z,341
2022-09-26T12:14:08.790Z,340
2022-09-26T12:15:08.437Z,331
2022-09-26T12:16:08.916Z,325
2022-09-26T12:17:08.246Z,335
2022-09-26T12:18:08.273Z,338
2022-09-26T12:19:10.489Z,337
2022-09-26T12:20:08.646Z,330
2022-09-26T12:21:08.887Z,340
2022-09-26T12:22:07.837Z,346
2022-09-26T12:23:08.607Z,323
2022-09-26T12:24:08.745Z,329
2022-09-26T12:25:08.863Z,339
2022-09-26T12:26:08.576Z,342
2022-09-26T12:27:08.801Z,341
2022-09-26T12:28:07.935Z,342
2022-09-26T12:29:07.987Z,339
2022-09-26T12:30:08.091Z,338
2022-09-26T12:31:08.144Z,336
2022-09-26T12:32:07.806Z,342
2022-09-26T12:33:08.684Z,346
2022-09-26T12:34:08.721Z,347
2022-09-26T12:35:08.987Z,357
2022-09-26T12:36:07.993Z,329
2022-09-26T12:37:08.439Z,337
2022-09-26T12:38:08.486Z,351
2022-09-26T12:39:08.135Z,336
2022-09-26T12:40:08.110Z,332
2022-09-26T12:41:08.047Z,325
2022-09-26T12:42:08.079Z,336
2022-09-26T12:43:07.740Z,331
2022-09-26T12:44:08.462Z,323
2022-09-26T12:45:08.595Z,330
2022-09-26T12:46:08.317Z,341
2022-09-26T12:47:08.064Z,351
2022-09-26T12:48:08.845Z,355
2022-09-26T12:49:27.724Z,338
2022-09-26T12:50:07.869Z,342
2022-09-26T12:51:08.359Z,344
2022-09-26T12:52:07.922Z,340
2022-09-26T12:53:08.295Z,339
2022-09-26T12:54:07.990Z,349
2022-09-26T12:55:07.589Z,348
2022-09-26T12:56:07.872Z,347
2022-09-26T12:57:08.838Z,337
2022-09-26T12:58:07.620Z,342
2022-09-26T12:59:07.778Z,339
2022-09-26T13:00:09.043Z,342
2022-09-26T13:01:08.223Z,343
2022-09-26T13:02:07.752Z,331
2022-09-26T13:03:08.809Z,333
2022-09-26T13:04:08.499Z,336
2022-09-26T13:05:07.967Z,326
2022-09-26T13:06:08.803Z,329
2022-09-26T13:07:18.851Z,335
2022-09-26T13:08:07.685Z,339
2022-09-26T13:09:07.974Z,331
2022-09-26T13:10:08.747Z,327
2022-09-26T13:11:08.740Z,334
2022-09-26T13:12:08.312Z,338
2022-09-26T13:13:08.461Z,344
2022-09-26T13:15:07.858Z,346
2022-09-26T13:16:08.304Z,342
2022-09-26T13:17:08.185Z,335
2022-09-26T13:19:08.173Z,332
2022-09-26T13:20:07.866Z,343
2022-09-26T13:21:08.141Z,348
2022-09-26T13:22:08.394Z,337
2022-09-26T13:23:07.707Z,334
2022-09-26T13:24:08.457Z,328
2022-09-26T13:25:08.362Z,339
2022-09-26T13:26:07.763Z,341
2022-09-26T13:27:07.745Z,338
2022-09-26T13:28:08.160Z,342
2022-09-26T13:29:17.722Z,341
2022-09-26T13:30:08.395Z,328
2022-09-26T13:31:07.979Z,327
2022-09-26T13:32:08.630Z,333
2022-09-26T13:33:08.001Z,312
2022-09-26T13:34:08.270Z,324
2022-09-26T13:35:07.794Z,335
2022-09-26T13:36:08.283Z,339
2022-09-26T13:37:07.638Z,331
2022-09-26T13:38:08.454Z,342
2022-09-26T13:39:07.900Z,344
2022-09-26T13:40:07.860Z,336
2022-09-26T13:41:08.062Z,342
2022-09-26T13:42:07.600Z,334
2022-09-26T13:43:08.078Z,340
2022-09-26T13:44:08.602Z,343
2022-09-26T13:45:08.303Z,350
2022-09-26T13:46:08.081Z,340
2022-09-26T13:47:08.378Z,330
2022-09-26T13:48:07.811Z,322
2022-09-26T13:49:08.114Z,329
2022-09-26T13:50:08.761Z,330
2022-09-26T13:51:08.258Z,328
2022-09-26T13:52:07.772Z,331
2022-09-26T13:54:08.484Z,333
2022-09-26T13:55:07.883Z,328
2022-09-26T13:57:07.812Z,336
2022-09-26T13:58:08.272Z,335
2022-09-26T13:59:08.564Z,334
2022-09-26T14:00:09.283Z,341
2022-09-26T14:01:08.638Z,343
2022-09-26T14:02:08.196Z,341
2022-09-26T14:03:08.887Z,351
2022-09-26T14:04:08.478Z,343
2022-09-26T14:05:08.113Z,337
2022-09-26T14:07:08.380Z,342
2022-09-26T14:08:07.602Z,343
2022-09-26T14:09:07.690Z,344
2022-09-26T14:10:08.330Z,348
2022-09-26T14:11:08.173Z,321
2022-09-26T14:12:07.943Z,354
2022-09-26T14:13:08.914Z,345
2022-09-26T14:14:08.301Z,339
2022-09-26T14:15:08.352Z,337
2022-09-26T14:16:08.221Z,330
2022-09-26T14:17:08.030Z,320
2022-09-26T14:18:07.939Z,333
2022-09-26T14:19:08.341Z,340
2022-09-26T14:20:08.246Z,336
2022-09-26T14:22:08.159Z,340
2022-09-26T14:23:08.670Z,332
2022-09-26T14:24:08.347Z,323
2022-09-26T14:25:07.761Z,325
2022-09-26T14:26:08.248Z,336
2022-09-26T14:27:07.642Z,330
2022-09-26T14:28:08.014Z,331
2022-09-26T14:30:08.457Z,336
2022-09-26T14:31:08.031Z,331
2022-09-26T14:32:08.098Z,330
2022-09-26T14:33:08.220Z,336
2022-09-26T14:34:07.559Z,328
2022-09-26T14:35:07.889Z,330
2022-09-26T14:36:08.368Z,332
2022-09-26T14:37:07.792Z,327
2022-09-26T14:38:08.315Z,328
2022-09-26T14:39:07.935Z,341
2022-09-26T14:40:13.188Z,336
2022-09-26T14:41:07.720Z,344
2022-09-26T14:42:08.386Z,343
2022-09-26T14:43:08.053Z,340
2022-09-26T14:44:13.571Z,346
2022-09-26T14:45:08.919Z,341
2022-09-26T14:46:08.464Z,336
2022-09-26T14:47:08.216Z,353
2022-09-26T14:48:07.621Z,349
2022-09-26T14:49:08.016Z,341
2022-09-26T14:50:08.962Z,330
2022-09-26T14:51:08.411Z,339
2022-09-26T14:52:11.158Z,347
2022-09-26T14:53:07.602Z,342
2022-09-26T14:55:08.346Z,346
2022-09-26T14:56:08.359Z,347
2022-09-26T14:57:07.968Z,340
2022-09-26T14:58:08.302Z,337